Time;durP1;ratioP1;P1;durP2;ratioP2;P2;SDS_P1;SDS_P2;PMS_P1;PMS_P2;Temp;Humidity;BMP_temperature;BMP_pressure;BME280_temperature;BME280_humidity;BME280_pressure;Samples;Min_cycle;Max_cycle;Signal;HPM_P1;HPM_P2
2021/05/12 00:00:31;;;;;;;0.80;0.80;;;15.00;99.90;;;;;;5018122;28;21026;-78
2021/05/12 00:03:00;;;;;;;0.77;0.77;;;15.00;15.80;;;;;;5012956;28;20690;-76
2021/05/12 00:05:28;;;;;;;2.70;0.90;;;14.90;99.90;;;;;;5015972;28;20469;-77
2021/05/12 00:07:55;;;;;;;0.80;0.80;;;14.90;99.90;;;;;;5009291;28;20539;-77
2021/05/12 00:10:23;;;;;;;0.80;0.80;;;14.90;99.90;;;;;;5012135;28;20555;-77
2021/05/12 00:12:52;;;;;;;0.80;0.80;;;15.00;99.90;;;;;;5013530;28;21094;-77
2021/05/12 00:15:22;;;;;;;1.20;0.87;;;15.00;99.90;;;;;;5014107;28;20829;-76
2021/05/12 00:17:52;;;;;;;1.03;1.00;;;15.10;99.90;;;;;;5014854;28;20483;-77
2021/05/12 00:20:23;;;;;;;1.23;0.90;;;15.10;99.90;;;;;;5016295;28;20452;-81
2021/05/12 00:22:55;;;;;;;0.87;0.80;;;15.10;99.90;;;;;;5025660;28;20530;-77
2021/05/12 00:25:23;;;;;;;1.00;0.90;;;15.10;99.90;;;;;;5007143;28;20454;-77
2021/05/12 00:27:51;;;;;;;0.77;0.77;;;15.10;99.90;;;;;;5013563;28;20455;-77
2021/05/12 00:30:21;;;;;;;0.87;0.87;;;15.20;23.20;;;;;;5011746;28;20457;-77
2021/05/12 00:32:50;;;;;;;0.90;0.90;;;15.20;99.90;;;;;;5004821;28;20480;-77
2021/05/12 00:35:17;;;;;;;1.00;0.77;;;15.30;1.00;;;;;;5002791;28;20901;-78
2021/05/12 00:37:45;;;;;;;0.80;0.80;;;15.30;1.00;;;;;;5004058;28;20467;-76
2021/05/12 00:40:18;;;;;;;0.80;0.80;;;15.30;99.90;;;;;;5005307;28;20463;-77
2021/05/12 00:42:47;;;;;;;1.63;0.90;;;15.30;99.90;;;;;;5015277;28;20700;-75
2021/05/12 00:45:17;;;;;;;1.17;0.70;;;15.30;99.90;;;;;;5012773;28;20526;-77
2021/05/12 00:47:48;;;;;;;1.13;0.77;;;15.30;99.90;;;;;;5011156;28;20465;-76
2021/05/12 00:50:18;;;;;;;0.90;0.80;;;15.30;92.70;;;;;;5003689;28;20562;-76
2021/05/12 00:52:46;;;;;;;0.90;0.87;;;15.30;98.70;;;;;;5009589;28;20455;-75
2021/05/12 00:55:14;;;;;;;1.27;0.97;;;15.20;80.50;;;;;;5010053;28;20454;-76
2021/05/12 00:57:42;;;;;;;1.10;1.00;;;15.20;95.30;;;;;;5004491;28;20462;-77
2021/05/12 01:00:13;;;;;;;0.90;0.80;;;15.20;44.10;;;;;;5008676;28;20470;-79
2021/05/12 01:02:41;;;;;;;1.90;0.70;;;15.20;8.30;;;;;;5026506;28;20464;-78
2021/05/12 01:05:19;;;;;;;0.67;0.67;;;15.20;1.00;;;;;;5003879;28;20692;-76
2021/05/12 01:07:48;;;;;;;0.80;0.80;;;15.30;1.00;;;;;;5002043;28;20465;-77
2021/05/12 01:10:15;;;;;;;1.60;1.00;;;15.30;1.00;;;;;;5008830;28;20831;-77
2021/05/12 01:12:43;;;;;;;0.80;0.80;;;15.30;1.00;;;;;;5012075;28;20455;-79
2021/05/12 01:15:13;;;;;;;1.00;0.60;;;15.20;1.00;;;;;;5015378;28;20482;-78
2021/05/12 01:17:41;;;;;;;0.60;0.60;;;15.20;1.00;;;;;;5010517;28;20982;-79
2021/05/12 01:20:11;;;;;;;1.27;0.70;;;15.20;99.90;;;;;;5008938;28;20468;-80
2021/05/12 01:22:41;;;;;;;1.90;0.60;;;15.10;99.90;;;;;;5032350;28;20460;-78
2021/05/12 01:25:10;;;;;;;1.10;0.47;;;15.10;99.90;;;;;;5004001;28;20467;-78
2021/05/12 01:27:38;;;;;;;0.80;0.70;;;15.10;99.90;;;;;;5013274;28;20891;-78
2021/05/12 01:30:08;;;;;;;0.50;0.50;;;15.10;99.90;;;;;;5005859;28;20469;-78
2021/05/12 01:32:37;;;;;;;0.60;0.60;;;15.00;99.90;;;;;;5018410;28;20704;-79
2021/05/12 01:35:07;;;;;;;0.80;0.50;;;15.00;99.90;;;;;;5004224;28;20498;-77
2021/05/12 01:37:35;;;;;;;1.27;0.60;;;15.00;99.90;;;;;;5011440;28;20454;-78
2021/05/12 01:40:06;;;;;;;0.90;0.50;;;15.00;99.90;;;;;;5004128;28;20534;-75
2021/05/12 01:42:34;;;;;;;2.30;1.40;;;14.90;99.90;;;;;;5003024;28;20451;-77
2021/05/12 01:45:07;;;;;;;0.60;0.60;;;14.90;99.90;;;;;;5003946;28;20467;-79
2021/05/12 01:47:35;;;;;;;0.70;0.50;;;14.90;99.90;;;;;;5009743;28;20465;-78
2021/05/12 01:50:06;;;;;;;0.67;0.60;;;14.90;99.90;;;;;;5005835;28;20461;-79
2021/05/12 01:52:37;;;;;;;1.67;0.60;;;14.90;99.90;;;;;;5003568;28;21102;-75
2021/05/12 01:55:08;;;;;;;0.60;0.60;;;14.90;99.90;;;;;;5010826;28;21306;-78
2021/05/12 01:57:36;;;;;;;0.60;0.60;;;14.90;99.90;;;;;;5004403;28;20506;-76
2021/05/12 02:00:18;;;;;;;0.50;0.50;;;14.90;99.90;;;;;;5004848;28;20452;-78
2021/05/12 02:02:45;;;;;;;0.80;0.70;;;14.90;98.60;;;;;;5015491;28;20888;-77
2021/05/12 02:05:13;;;;;;;0.70;0.70;;;14.90;99.10;;;;;;5008929;28;20454;-79
2021/05/12 02:07:41;;;;;;;2.10;0.60;;;14.90;99.90;;;;;;5008719;28;20965;-77
2021/05/12 02:10:10;;;;;;;0.70;0.63;;;14.90;99.90;;;;;;5012674;28;20501;-77
2021/05/12 02:12:38;;;;;;;0.50;0.50;;;14.90;99.90;;;;;;5014565;28;20445;-77
2021/05/12 02:15:07;;;;;;;1.13;0.70;;;14.90;70.80;;;;;;5017170;28;20499;-78
2021/05/12 02:17:35;;;;;;;0.60;0.60;;;14.90;67.10;;;;;;5020605;28;20505;-78
2021/05/12 02:20:04;;;;;;;0.80;0.80;;;14.90;66.30;;;;;;5045634;28;20456;-80
2021/05/12 02:22:32;;;;;;;2.10;0.80;;;14.90;40.60;;;;;;5019821;28;21006;-78
2021/05/12 02:25:00;;;;;;;0.87;0.87;;;14.90;35.70;;;;;;5012135;28;20536;-80
2021/05/12 02:27:28;;;;;;;0.70;0.70;;;14.90;36.50;;;;;;5011966;28;20468;-79
2021/05/12 02:30:00;;;;;;;1.33;1.13;;;14.90;48.70;;;;;;5016270;28;20458;-77
2021/05/12 02:32:29;;;;;;;1.00;1.00;;;14.90;19.20;;;;;;5017342;28;21102;-78
2021/05/12 02:34:57;;;;;;;1.17;1.07;;;14.80;39.50;;;;;;5027684;28;20474;-79
2021/05/12 02:37:26;;;;;;;1.20;1.10;;;14.80;21.10;;;;;;5014156;28;20460;-78
2021/05/12 02:39:54;;;;;;;1.17;1.07;;;14.80;9.00;;;;;;5006094;28;20462;-76
2021/05/12 02:42:23;;;;;;;1.63;1.10;;;14.80;30.00;;;;;;5013417;28;21097;-80
2021/05/12 02:44:51;;;;;;;2.73;1.23;;;14.80;26.40;;;;;;5019067;28;20510;-78
2021/05/12 02:47:19;;;;;;;1.17;1.07;;;14.80;37.90;;;;;;5010506;28;20471;-78
2021/05/12 02:49:47;;;;;;;1.30;1.20;;;14.80;47.10;;;;;;5012668;28;20461;-79
2021/05/12 02:52:14;;;;;;;2.40;1.30;;;14.80;28.10;;;;;;5010732;28;20921;-79
2021/05/12 02:54:42;;;;;;;2.80;1.47;;;14.80;25.30;;;;;;5014867;28;21112;-77
2021/05/12 02:57:11;;;;;;;1.73;1.20;;;14.80;16.10;;;;;;5010083;28;20459;-78
2021/05/12 02:59:39;;;;;;;1.50;1.30;;;14.80;1.00;;;;;;5015346;28;20459;-78
2021/05/12 03:02:07;;;;;;;2.43;1.40;;;14.80;2.20;;;;;;5004931;28;21121;-77
2021/05/12 03:04:35;;;;;;;1.87;1.30;;;14.80;1.00;;;;;;5004262;28;20813;-77
2021/05/12 03:07:03;;;;;;;1.73;1.20;;;14.80;1.00;;;;;;5004638;28;20991;-77
2021/05/12 03:09:31;;;;;;;2.17;1.37;;;14.80;1.00;;;;;;5008585;28;20465;-77
2021/05/12 03:11:58;;;;;;;1.83;1.50;;;14.80;1.00;;;;;;5012411;28;20471;-78
2021/05/12 03:14:29;;;;;;;4.73;1.23;;;14.70;1.00;;;;;;5047733;28;20570;-78
2021/05/12 03:16:57;;;;;;;2.20;1.70;;;14.80;1.00;;;;;;5004756;28;20553;-78
2021/05/12 03:19:26;;;;;;;1.57;1.40;;;14.80;1.00;;;;;;5009049;28;20463;-79
2021/05/12 03:21:55;;;;;;;2.07;1.60;;;14.80;1.00;;;;;;5011653;28;20593;-78
2021/05/12 03:24:23;;;;;;;2.00;1.60;;;14.80;1.00;;;;;;5006922;28;20888;-77
2021/05/12 03:26:51;;;;;;;3.00;1.40;;;14.70;1.00;;;;;;5008774;28;20653;-80
2021/05/12 03:29:20;;;;;;;2.10;1.67;;;14.70;1.00;;;;;;5011049;28;20792;-77
2021/05/12 03:31:48;;;;;;;2.10;1.47;;;14.80;1.00;;;;;;5018930;28;20478;-77
2021/05/12 03:34:15;;;;;;;2.33;1.80;;;14.80;1.00;;;;;;5021642;28;20476;-78
2021/05/12 03:36:44;;;;;;;1.50;1.40;;;14.70;1.00;;;;;;5010194;28;20684;-77
2021/05/12 03:39:11;;;;;;;2.07;1.87;;;14.70;1.00;;;;;;5007731;28;20551;-76
2021/05/12 03:41:39;;;;;;;3.00;1.80;;;14.70;1.00;;;;;;5014276;28;20647;-79
2021/05/12 03:44:07;;;;;;;2.00;1.83;;;14.70;1.00;;;;;;5017951;28;21106;-78
2021/05/12 03:46:34;;;;;;;2.30;1.90;;;14.70;1.00;;;;;;5006915;28;20465;-76
2021/05/12 03:49:02;;;;;;;2.43;2.23;;;14.60;1.00;;;;;;5021553;28;20467;-76
2021/05/12 03:51:30;;;;;;;3.20;2.00;;;14.70;1.00;;;;;;5005264;28;20481;-79
2021/05/12 03:53:59;;;;;;;2.70;2.10;;;14.70;10.70;;;;;;5012059;28;20903;-77
2021/05/12 03:56:27;;;;;;;2.60;2.37;;;14.70;1.00;;;;;;5021556;28;20924;-78
2021/05/12 03:58:54;;;;;;;2.03;1.83;;;14.70;1.00;;;;;;5012857;28;20455;-77
2021/05/12 04:01:22;;;;;;;2.20;2.03;;;14.70;1.00;;;;;;5014467;28;21059;-78
2021/05/12 04:03:50;;;;;;;2.93;2.70;;;14.60;19.00;;;;;;5013411;28;20463;-80
2021/05/12 04:06:17;;;;;;;5.10;2.53;;;14.70;1.00;;;;;;5004570;28;20467;-76
2021/05/12 04:08:45;;;;;;;6.77;2.40;;;14.70;1.00;;;;;;5003584;28;20449;-75
2021/05/12 04:11:13;;;;;;;2.47;2.20;;;14.70;1.00;;;;;;5001709;28;21058;-76
2021/05/12 04:13:41;;;;;;;2.83;2.40;;;14.70;1.00;;;;;;5036314;28;20949;-76
2021/05/12 04:16:09;;;;;;;2.50;2.27;;;14.60;1.00;;;;;;5012434;28;20472;-75
2021/05/12 04:18:36;;;;;;;7.00;2.67;;;14.60;1.00;;;;;;5031215;28;20471;-74
2021/05/12 04:21:04;;;;;;;3.60;2.70;;;14.60;1.00;;;;;;5004903;28;20546;-76
2021/05/12 04:23:32;;;;;;;2.37;2.17;;;14.70;1.00;;;;;;5019277;28;20463;-73
2021/05/12 04:25:59;;;;;;;3.67;3.33;;;14.60;1.00;;;;;;5009565;28;20460;-78
2021/05/12 04:28:28;;;;;;;2.53;2.33;;;14.60;1.00;;;;;;5026612;28;20567;-75
2021/05/12 04:30:56;;;;;;;3.40;2.47;;;14.60;1.00;;;;;;5009434;28;20489;-75
2021/05/12 04:33:23;;;;;;;3.80;3.07;;;14.60;7.40;;;;;;5007618;28;20464;-75
2021/05/12 04:35:51;;;;;;;4.27;2.80;;;14.60;6.20;;;;;;5030243;28;20484;-76
2021/05/12 04:38:19;;;;;;;5.53;2.53;;;14.60;1.00;;;;;;5010656;28;20815;-76
2021/05/12 04:40:46;;;;;;;4.50;3.10;;;14.60;1.00;;;;;;5010028;28;20481;-75
2021/05/12 04:43:14;;;;;;;6.03;2.63;;;14.60;1.00;;;;;;5026275;28;20879;-76
2021/05/12 04:45:42;;;;;;;3.50;2.80;;;14.60;1.00;;;;;;5027573;28;20520;-76
2021/05/12 04:48:10;;;;;;;2.60;2.10;;;14.60;1.00;;;;;;5015555;28;20466;-76
2021/05/12 04:50:38;;;;;;;5.03;2.57;;;14.50;1.00;;;;;;5050215;28;21031;-74
2021/05/12 04:53:05;;;;;;;3.00;2.40;;;14.50;1.00;;;;;;5019931;28;20451;-76
2021/05/12 04:55:33;;;;;;;3.07;1.90;;;14.40;1.00;;;;;;5019854;28;20477;-77
2021/05/12 04:58:00;;;;;;;1.90;1.80;;;14.50;1.00;;;;;;5022667;28;20524;-76
2021/05/12 05:00:28;;;;;;;2.80;2.33;;;14.40;1.00;;;;;;5013674;28;20481;-76
2021/05/12 05:02:57;;;;;;;2.37;2.17;;;14.50;1.00;;;;;;5015293;28;20469;-79
2021/05/12 05:05:26;;;;;;;3.13;2.63;;;14.60;1.00;;;;;;5011828;28;20542;-74
2021/05/12 05:07:54;;;;;;;4.38;2.60;;;14.60;1.00;;;;;;5010593;28;20457;-77
2021/05/12 05:10:22;;;;;;;3.87;2.40;;;14.60;1.00;;;;;;5011216;28;20208;-75
2021/05/12 05:12:50;;;;;;;4.93;2.03;;;14.60;1.00;;;;;;5006427;28;21232;-75
2021/05/12 05:15:17;;;;;;;3.33;2.40;;;14.50;1.00;;;;;;5012112;28;20551;-74
2021/05/12 05:17:45;;;;;;;2.00;1.80;;;14.50;1.00;;;;;;5011233;28;21442;-74
2021/05/12 05:20:14;;;;;;;3.50;2.20;;;14.50;1.00;;;;;;5012074;28;20468;-74
2021/05/12 05:22:42;;;;;;;2.37;1.70;;;14.40;1.00;;;;;;5023816;28;20459;-75
2021/05/12 05:25:11;;;;;;;2.67;1.90;;;14.50;1.00;;;;;;5019801;28;20993;-74
2021/05/12 05:27:38;;;;;;;1.90;1.80;;;14.50;1.00;;;;;;5023068;28;20470;-75
2021/05/12 05:30:07;;;;;;;1.50;1.40;;;14.50;1.00;;;;;;5022086;28;20459;-72
2021/05/12 05:32:35;;;;;;;1.60;1.50;;;14.60;1.00;;;;;;5022753;28;20463;-74
2021/05/12 05:35:05;;;;;;;1.60;1.40;;;14.50;1.00;;;;;;5021364;28;21186;-73
2021/05/12 05:37:34;;;;;;;2.03;1.30;;;14.40;1.00;;;;;;5017361;28;20875;-75
2021/05/12 05:40:01;;;;;;;1.83;1.20;;;14.40;1.00;;;;;;5016693;28;20471;-75
2021/05/12 05:42:29;;;;;;;1.70;1.60;;;14.30;1.00;;;;;;5061185;28;20510;-74
2021/05/12 05:44:57;;;;;;;2.83;1.37;;;14.30;1.00;;;;;;5019552;28;20464;-74
2021/05/12 05:47:26;;;;;;;1.63;1.23;;;14.40;1.00;;;;;;5026759;28;21216;-75
2021/05/12 05:49:53;;;;;;;1.30;1.20;;;14.40;1.00;;;;;;5019549;28;20455;-76
2021/05/12 05:52:21;;;;;;;1.90;1.30;;;14.40;1.00;;;;;;5020738;28;20783;-75
2021/05/12 05:54:50;;;;;;;1.37;1.27;;;14.50;1.00;;;;;;5016786;28;20476;-75
2021/05/12 05:57:18;;;;;;;3.13;1.10;;;14.50;1.00;;;;;;5019227;28;20550;-74
2021/05/12 05:59:46;;;;;;;1.90;1.40;;;14.50;1.00;;;;;;5025676;28;20455;-76
2021/05/12 06:02:13;;;;;;;2.50;1.87;;;14.50;1.00;;;;;;5024159;28;21089;-75
2021/05/12 06:04:41;;;;;;;1.70;1.50;;;14.50;1.00;;;;;;5022291;28;20960;-74
2021/05/12 06:07:09;;;;;;;3.20;2.20;;;14.40;1.00;;;;;;5022884;28;20467;-74
2021/05/12 06:09:36;;;;;;;1.63;1.50;;;14.40;1.00;;;;;;5019124;28;20489;-75
2021/05/12 06:12:06;;;;;;;1.60;1.43;;;14.40;1.00;;;;;;5013520;28;20493;-75
2021/05/12 06:14:33;;;;;;;1.47;1.37;;;14.40;1.00;;;;;;5019501;28;20464;-75
2021/05/12 06:17:01;;;;;;;1.63;1.47;;;14.30;1.00;;;;;;5022012;28;20463;-74
2021/05/12 06:19:29;;;;;;;1.60;1.30;;;14.40;1.00;;;;;;5036620;28;20504;-75
2021/05/12 06:21:56;;;;;;;1.47;1.30;;;14.50;1.00;;;;;;5018561;28;20501;-75
2021/05/12 06:24:24;;;;;;;1.43;1.33;;;14.50;1.00;;;;;;5022158;28;20467;-75
2021/05/12 06:26:53;;;;;;;1.63;1.20;;;14.50;1.00;;;;;;5027652;28;20534;-77
2021/05/12 06:29:21;;;;;;;4.80;2.00;;;14.40;1.00;;;;;;5015814;28;20465;-78
2021/05/12 06:31:49;;;;;;;1.67;1.37;;;14.30;1.00;;;;;;5004859;28;20471;-78
2021/05/12 06:34:17;;;;;;;5.23;1.63;;;14.30;1.00;;;;;;5016569;28;20527;-78
2021/05/12 06:36:45;;;;;;;1.80;1.50;;;14.40;1.00;;;;;;5010935;28;20500;-77
2021/05/12 06:39:12;;;;;;;1.50;1.40;;;14.40;1.00;;;;;;5022807;28;20992;-76
2021/05/12 06:41:40;;;;;;;4.90;1.50;;;14.40;1.00;;;;;;5019980;28;20992;-77
2021/05/12 06:44:07;;;;;;;3.83;2.03;;;14.50;1.00;;;;;;5018926;28;20465;-77
2021/05/12 06:46:36;;;;;;;1.63;1.50;;;14.40;1.00;;;;;;5019860;28;20491;-77
2021/05/12 06:49:04;;;;;;;3.30;1.70;;;14.40;1.00;;;;;;5021560;28;20463;-75
2021/05/12 06:51:31;;;;;;;2.93;1.60;;;14.40;1.00;;;;;;5013929;28;20490;-76
2021/05/12 06:53:59;;;;;;;2.23;1.60;;;14.40;1.00;;;;;;5007463;28;20470;-76
2021/05/12 06:56:27;;;;;;;4.50;1.60;;;14.40;1.00;;;;;;5020091;28;21303;-77
2021/05/12 06:58:55;;;;;;;3.87;1.60;;;14.40;1.00;;;;;;5020444;28;20642;-78
2021/05/12 07:01:22;;;;;;;1.70;1.60;;;14.50;1.00;;;;;;5018437;28;20848;-76
2021/05/12 07:03:51;;;;;;;2.60;1.60;;;14.50;1.00;;;;;;5018205;28;20447;-76
2021/05/12 07:06:20;;;;;;;1.33;1.23;;;14.50;1.00;;;;;;5018575;28;20454;-77
2021/05/12 07:08:50;;;;;;;1.93;1.57;;;14.50;1.00;;;;;;5024523;28;20458;-77
2021/05/12 07:11:18;;;;;;;1.90;1.67;;;14.40;1.00;;;;;;5024536;28;21065;-75
2021/05/12 07:13:46;;;;;;;2.60;1.50;;;14.40;1.00;;;;;;5021958;28;20556;-77
2021/05/12 07:16:14;;;;;;;3.83;1.80;;;14.30;1.00;;;;;;5017092;28;20494;-77
2021/05/12 07:18:41;;;;;;;1.50;1.40;;;14.30;1.00;;;;;;5050343;28;21180;-76
2021/05/12 07:21:10;;;;;;;1.87;1.40;;;14.20;1.00;;;;;;5013711;28;20484;-77
2021/05/12 07:23:39;;;;;;;2.00;1.90;;;14.10;1.00;;;;;;5020979;28;20451;-77
2021/05/12 07:26:07;;;;;;;2.40;1.70;;;14.20;1.00;;;;;;5019088;28;20466;-77
2021/05/12 07:28:35;;;;;;;1.77;1.53;;;14.30;1.00;;;;;;5015528;28;20468;-77
2021/05/12 07:31:03;;;;;;;1.83;1.73;;;14.30;1.00;;;;;;5017815;28;21142;-79
2021/05/12 07:33:41;;;;;;;7.00;1.77;;;14.30;1.00;;;;;;5024251;28;20942;-76
2021/05/12 07:36:10;;;;;;;1.50;1.40;;;14.40;1.00;;;;;;5023321;28;20564;-76
2021/05/12 07:38:39;;;;;;;3.03;1.33;;;14.40;1.00;;;;;;5019006;28;20520;-77
2021/05/12 07:41:06;;;;;;;3.13;1.30;;;14.40;1.00;;;;;;5016644;28;20483;-74
2021/05/12 07:43:34;;;;;;;2.83;1.40;;;14.40;1.00;;;;;;5021312;28;20459;-75
2021/05/12 07:46:02;;;;;;;2.90;1.60;;;14.50;1.00;;;;;;5023928;28;20476;-75
2021/05/12 07:48:30;;;;;;;1.60;1.50;;;14.50;1.00;;;;;;5015836;28;21037;-75
2021/05/12 07:50:59;;;;;;;3.50;1.40;;;14.50;1.00;;;;;;5010188;28;20845;-75
2021/05/12 07:53:27;;;;;;;1.70;1.47;;;14.40;1.00;;;;;;5014891;28;20459;-75
2021/05/12 07:55:55;;;;;;;1.93;1.40;;;14.40;1.00;;;;;;5026633;28;20490;-73
2021/05/12 07:58:22;;;;;;;1.30;1.20;;;14.50;1.00;;;;;;5022616;28;20459;-75
2021/05/12 08:00:51;;;;;;;1.50;1.40;;;14.50;1.00;;;;;;4998117;28;20503;-76
2021/05/12 08:03:19;;;;;;;4.30;1.50;;;14.50;1.00;;;;;;5012282;28;20506;-75
2021/05/12 08:05:49;;;;;;;1.70;1.33;;;14.50;1.00;;;;;;5014394;28;20451;-75
2021/05/12 08:08:17;;;;;;;3.00;1.20;;;14.60;1.00;;;;;;5017730;28;20836;-76
2021/05/12 08:10:46;;;;;;;2.03;1.43;;;14.60;1.00;;;;;;5028059;28;20478;-76
2021/05/12 08:13:13;;;;;;;1.30;1.20;;;14.60;1.00;;;;;;5020066;28;20462;-77
2021/05/12 08:15:41;;;;;;;2.40;1.70;;;14.60;1.00;;;;;;5014136;28;20492;-76
2021/05/12 08:18:09;;;;;;;1.60;1.30;;;14.60;1.00;;;;;;5016527;28;20483;-76
2021/05/12 08:20:37;;;;;;;1.80;1.30;;;14.60;1.00;;;;;;5016789;28;21480;-76
2021/05/12 08:23:05;;;;;;;1.37;1.10;;;14.60;1.00;;;;;;5020268;28;20874;-76
2021/05/12 08:25:33;;;;;;;1.43;1.20;;;14.70;1.00;;;;;;5016942;28;20479;-74
2021/05/12 08:28:01;;;;;;;1.93;1.00;;;14.60;1.00;;;;;;5017887;28;20528;-76
2021/05/12 08:30:35;;;;;;;1.30;1.07;;;14.70;1.00;;;;;;5013390;28;20535;-77
2021/05/12 08:33:03;;;;;;;1.20;1.10;;;14.60;1.00;;;;;;5004439;28;20883;-75
2021/05/12 08:35:31;;;;;;;1.67;1.30;;;14.60;1.00;;;;;;5019351;28;20482;-77
2021/05/12 08:37:58;;;;;;;1.30;1.20;;;14.70;1.00;;;;;;5015936;28;20554;-77
2021/05/12 08:40:27;;;;;;;3.77;1.30;;;14.70;1.00;;;;;;5015221;28;20617;-76
2021/05/12 08:42:56;;;;;;;2.00;1.43;;;14.70;1.00;;;;;;5018807;28;20649;-77
2021/05/12 08:45:25;;;;;;;1.90;1.37;;;14.70;1.00;;;;;;5020456;28;20476;-77
2021/05/12 08:47:54;;;;;;;2.20;1.33;;;14.80;1.00;;;;;;5027494;28;20459;-74
2021/05/12 08:50:24;;;;;;;1.27;1.10;;;14.70;1.00;;;;;;5018471;28;20472;-75
2021/05/12 08:52:52;;;;;;;1.43;1.10;;;14.70;1.00;;;;;;5015930;28;20469;-76
2021/05/12 08:55:21;;;;;;;2.13;1.20;;;14.80;1.00;;;;;;5028799;28;20456;-76
2021/05/12 08:57:50;;;;;;;2.03;1.10;;;14.80;99.90;;;;;;5017537;28;20525;-77
2021/05/12 09:00:18;;;;;;;3.10;1.10;;;14.80;1.00;;;;;;5031632;28;20463;-78
2021/05/12 09:02:47;;;;;;;2.00;1.10;;;14.90;1.00;;;;;;5043917;28;20448;-77
2021/05/12 09:05:15;;;;;;;2.03;1.20;;;14.90;1.00;;;;;;5036421;28;20464;-76
2021/05/12 09:07:43;;;;;;;1.70;1.20;;;14.80;1.00;;;;;;5036876;28;20457;-74
2021/05/12 09:10:12;;;;;;;3.33;1.90;;;14.80;1.00;;;;;;5026356;28;20491;-77
2021/05/12 09:12:44;;;;;;;2.07;1.90;;;14.90;1.00;;;;;;5030276;28;20543;-76
2021/05/12 09:15:15;;;;;;;1.30;1.13;;;14.90;1.00;;;;;;5034608;28;20459;-78
2021/05/12 09:17:44;;;;;;;1.93;1.40;;;14.90;1.00;;;;;;5038559;28;20826;-75
2021/05/12 09:20:28;;;;;;;2.60;1.47;;;14.90;1.00;;;;;;5028827;28;20454;-76
2021/05/12 09:23:08;;;;;;;3.90;1.43;;;14.80;1.00;;;;;;5029013;28;20451;-75
2021/05/12 09:25:38;;;;;;;1.97;1.07;;;14.90;1.00;;;;;;5031590;28;20969;-76
2021/05/12 09:28:12;;;;;;;2.73;1.20;;;14.80;1.00;;;;;;5028648;28;20473;-77
2021/05/12 09:30:41;;;;;;;2.10;1.47;;;14.90;1.00;;;;;;5033481;28;20470;-76
2021/05/12 09:33:25;;;;;;;6.03;1.90;;;14.90;1.00;;;;;;5027181;28;20460;-76
2021/05/12 09:35:53;;;;;;;4.63;1.93;;;14.90;1.00;;;;;;5030598;28;20478;-75
2021/05/12 09:38:25;;;;;;;3.47;1.70;;;15.00;1.00;;;;;;5028884;28;21000;-76
2021/05/12 09:41:07;;;;;;;2.83;1.50;;;15.00;1.00;;;;;;5027029;28;21038;-76
2021/05/12 09:43:36;;;;;;;1.93;1.30;;;14.90;99.90;;;;;;5031235;28;20527;-76
2021/05/12 09:46:22;;;;;;;3.10;1.67;;;15.00;1.00;;;;;;5030548;28;20466;-76
2021/05/12 09:49:06;;;;;;;1.30;1.20;;;14.90;1.00;;;;;;5030593;28;20463;-75
2021/05/12 09:51:37;;;;;;;3.20;1.60;;;14.90;99.90;;;;;;5064516;28;20776;-76
2021/05/12 09:54:08;;;;;;;5.00;1.50;;;14.90;1.00;;;;;;5034715;28;20511;-78
2021/05/12 09:56:40;;;;;;;1.50;1.40;;;15.00;99.90;;;;;;5027002;28;20918;-75
2021/05/12 09:59:09;;;;;;;2.40;1.40;;;15.10;99.90;;;;;;5056356;28;20460;-76
2021/05/12 10:02:02;;;;;;;1.80;1.33;;;15.10;99.90;;;;;;5031967;28;20841;-77
2021/05/12 10:04:38;;;;;;;2.83;1.93;;;15.10;99.90;;;;;;5024069;28;20767;-75
2021/05/12 10:07:18;;;;;;;2.23;1.40;;;15.00;99.90;;;;;;5027353;28;20461;-76
2021/05/12 10:09:48;;;;;;;4.28;1.60;;;15.10;99.90;;;;;;5028234;28;20456;-77
2021/05/12 10:12:18;;;;;;;5.90;1.40;;;15.10;99.90;;;;;;5030494;28;20222;-77
2021/05/12 10:14:48;;;;;;;5.40;1.97;;;15.20;1.00;;;;;;5026057;28;20488;-76
2021/05/12 10:17:18;;;;;;;1.93;1.73;;;15.20;1.00;;;;;;5029236;28;21007;-76
2021/05/12 10:19:48;;;;;;;3.03;1.60;;;15.20;99.90;;;;;;5026596;28;20483;-76
2021/05/12 10:22:18;;;;;;;3.23;2.00;;;15.20;1.00;;;;;;5024683;28;20478;-76
2021/05/12 10:24:47;;;;;;;3.00;1.40;;;15.30;99.90;;;;;;5031625;28;20458;-77
2021/05/12 10:27:16;;;;;;;2.23;1.77;;;15.30;99.90;;;;;;5028385;28;20465;-77
2021/05/12 10:29:49;;;;;;;2.90;1.30;;;15.30;99.90;;;;;;5043977;28;20466;-75
2021/05/12 10:32:24;;;;;;;3.73;1.37;;;15.30;99.90;;;;;;5026060;28;20481;-77
2021/05/12 10:35:03;;;;;;;3.03;1.70;;;15.30;99.90;;;;;;5025969;28;21044;-76
2021/05/12 10:37:33;;;;;;;2.23;1.30;;;15.20;99.90;;;;;;5060521;28;20317;-78
2021/05/12 10:40:04;;;;;;;2.10;1.30;;;15.30;99.90;;;;;;5026031;28;20468;-77
2021/05/12 10:42:59;;;;;;;1.90;1.53;;;15.30;99.90;;;;;;5021827;28;20491;-76
2021/05/12 10:45:53;;;;;;;3.33;1.63;;;15.40;99.90;;;;;;5024680;28;20467;-76
2021/05/12 10:48:38;;;;;;;1.20;1.10;;;15.40;99.90;;;;;;5035681;28;20456;-76
2021/05/12 10:51:07;;;;;;;2.40;1.50;;;15.40;99.90;;;;;;5022273;28;20997;-76
2021/05/12 10:53:44;;;;;;;3.03;1.40;;;15.50;99.90;;;;;;5022823;28;20466;-76
2021/05/12 10:56:13;;;;;;;2.50;1.97;;;15.40;99.90;;;;;;5025533;28;20947;-76
2021/05/12 10:58:57;;;;;;;3.23;1.47;;;15.40;99.90;;;;;;5029570;28;20510;-78
2021/05/12 11:01:31;;;;;;;6.17;1.50;;;15.50;99.90;;;;;;5028155;28;20486;-77
2021/05/12 11:04:10;;;;;;;1.67;1.40;;;15.50;99.90;;;;;;5029944;28;21059;-77
2021/05/12 11:06:59;;;;;;;1.97;1.47;;;15.50;99.90;;;;;;5025521;28;20963;-77
2021/05/12 11:09:48;;;;;;;2.80;1.50;;;15.60;99.90;;;;;;5023921;28;20452;-76
2021/05/12 11:12:32;;;;;;;3.80;1.23;;;15.60;99.90;;;;;;5029036;28;20558;-76
2021/05/12 11:15:02;;;;;;;1.43;1.27;;;15.70;99.90;;;;;;5025301;28;20452;-78
2021/05/12 11:17:52;;;;;;;4.30;1.20;;;15.70;99.90;;;;;;5029595;28;20483;-77
2021/05/12 11:20:27;;;;;;;5.05;1.30;;;15.70;99.90;;;;;;5024088;28;20944;-75
2021/05/12 11:22:57;;;;;;;1.73;1.10;;;15.80;99.90;;;;;;5025885;28;20455;-76
2021/05/12 11:25:32;;;;;;;2.40;1.20;;;15.80;99.90;;;;;;5025205;28;20440;-75
2021/05/12 11:31:28;;;;;;;1.80;0.97;;;15.80;99.90;;;;;;5026613;28;20893;-77
2021/05/12 11:33:57;;;;;;;1.50;1.23;;;15.90;99.90;;;;;;5026254;28;20547;-77
2021/05/12 11:36:33;;;;;;;2.47;1.00;;;15.90;99.90;;;;;;5030587;28;21043;-77
2021/05/12 11:39:01;;;;;;;3.60;1.50;;;15.90;99.90;;;;;;5028624;28;20446;-76
2021/05/12 11:41:29;;;;;;;3.00;1.20;;;15.90;99.90;;;;;;5029672;28;20468;-76
2021/05/12 11:44:00;;;;;;;1.60;1.10;;;15.80;99.90;;;;;;5025630;28;20866;-77
2021/05/12 11:46:30;;;;;;;1.50;1.10;;;15.90;99.90;;;;;;5029370;28;20464;-76
2021/05/12 11:48:59;;;;;;;4.30;0.80;;;15.80;99.90;;;;;;5026363;28;20471;-77
2021/05/12 11:51:35;;;;;;;1.55;1.00;;;15.80;99.90;;;;;;5027727;28;20502;-77
2021/05/12 11:54:04;;;;;;;1.40;1.03;;;15.90;99.90;;;;;;5029466;28;20541;-76
2021/05/12 11:56:34;;;;;;;1.60;1.00;;;15.90;99.90;;;;;;5030016;28;20457;-77
2021/05/12 11:59:04;;;;;;;1.47;0.90;;;16.00;99.90;;;;;;5027458;28;20518;-78
2021/05/12 12:01:37;;;;;;;3.23;1.00;;;16.00;99.90;;;;;;5041498;28;20472;-77
2021/05/12 12:04:13;;;;;;;7.40;1.30;;;16.10;99.90;;;;;;5029053;28;20476;-78
2021/05/12 12:06:42;;;;;;;1.40;0.83;;;16.00;99.90;;;;;;5024852;28;20462;-76
2021/05/12 12:09:10;;;;;;;2.37;1.10;;;16.00;99.90;;;;;;5028338;28;20455;-77
2021/05/12 12:11:39;;;;;;;4.50;1.20;;;16.10;99.90;;;;;;5027270;28;20494;-77
2021/05/12 12:14:07;;;;;;;0.90;0.90;;;16.00;99.90;;;;;;5023128;28;20489;-77
2021/05/12 12:16:36;;;;;;;3.00;1.40;;;16.10;99.90;;;;;;5022998;28;20984;-76
2021/05/12 12:19:12;;;;;;;4.97;1.10;;;16.10;99.90;;;;;;5027138;28;20456;-77
2021/05/12 12:21:42;;;;;;;3.10;1.10;;;16.20;99.90;;;;;;5027835;28;20502;-76
2021/05/12 12:24:12;;;;;;;1.90;0.80;;;16.20;99.90;;;;;;5023834;28;20204;-77
2021/05/12 12:26:46;;;;;;;3.67;1.30;;;16.20;99.90;;;;;;5020992;28;20458;-77
2021/05/12 12:29:15;;;;;;;2.40;1.13;;;16.30;99.90;;;;;;5022044;28;20447;-77
2021/05/12 12:31:45;;;;;;;1.00;0.90;;;16.20;99.90;;;;;;5024818;28;20480;-77
2021/05/12 12:34:19;;;;;;;3.07;1.30;;;16.20;99.90;;;;;;5028352;28;20963;-78
2021/05/12 12:36:59;;;;;;;1.73;0.90;;;16.20;99.90;;;;;;5021343;28;20660;-76
2021/05/12 12:39:42;;;;;;;1.87;1.00;;;16.20;99.90;;;;;;5021172;28;20460;-77
2021/05/12 12:42:12;;;;;;;1.10;1.00;;;16.10;99.90;;;;;;5024207;28;20516;-78
2021/05/12 12:44:41;;;;;;;3.55;1.20;;;16.10;99.90;;;;;;5026068;28;20453;-77
2021/05/12 12:47:14;;;;;;;1.63;1.20;;;16.10;99.90;;;;;;5016378;28;20213;-77
2021/05/12 12:49:48;;;;;;;3.33;1.05;;;16.10;99.90;;;;;;5022532;28;20940;-73
2021/05/12 12:52:20;;;;;;;2.80;1.23;;;16.10;99.90;;;;;;5021346;28;20221;-76
2021/05/12 12:54:51;;;;;;;2.30;0.93;;;16.20;99.90;;;;;;5020985;28;20468;-76
2021/05/12 12:57:21;;;;;;;1.13;1.00;;;16.20;99.90;;;;;;5018974;28;20475;-76
2021/05/12 13:00:12;;;;;;;4.00;1.37;;;16.20;99.90;;;;;;5027687;28;20468;-77
2021/05/12 13:03:03;;;;;;;1.20;1.00;;;16.20;99.90;;;;;;5025523;28;20449;-76
2021/05/12 13:05:38;;;;;;;1.30;1.20;;;16.20;99.90;;;;;;5021799;28;20456;-75
2021/05/12 13:08:30;;;;;;;3.80;1.30;;;16.20;99.90;;;;;;5021344;28;20477;-76
2021/05/12 13:11:10;;;;;;;2.03;1.00;;;16.20;99.90;;;;;;5019920;28;20491;-78